Time;durP1;ratioP1;P1;durP2;ratioP2;P2;SDS_P1;SDS_P2;PMS_P1;PMS_P2;Temp;Humidity;BMP_temperature;BMP_pressure;BME280_temperature;BME280_humidity;BME280_pressure;Samples;Min_cycle;Max_cycle;Signal;HPM_P1;HPM_P2
2022/08/25 00:01:29;;;;;;;6.65;6.07;;;23.00;2.90;;;;;;5074249;28;20175;-70
2022/08/25 00:03:56;;;;;;;7.18;6.53;;;22.90;7.00;;;;;;5074565;28;20176;-70
2022/08/25 00:06:22;;;;;;;10.90;6.30;;;22.90;12.40;;;;;;5074210;28;20701;-70
2022/08/25 00:08:49;;;;;;;7.38;6.60;;;22.80;14.90;;;;;;5074038;28;20221;-70
2022/08/25 00:11:22;;;;;;;10.82;6.70;;;22.90;13.20;;;;;;5073363;28;20211;-70
2022/08/25 00:13:52;;;;;;;9.48;6.55;;;22.80;15.40;;;;;;5074120;28;20169;-70
2022/08/25 00:16:20;;;;;;;8.75;6.43;;;22.80;17.40;;;;;;5074178;28;20222;-70
2022/08/25 00:18:50;;;;;;;7.47;6.78;;;22.80;15.50;;;;;;5073889;28;20172;-69
2022/08/25 00:21:17;;;;;;;10.20;6.32;;;22.80;21.40;;;;;;5073979;28;20235;-69
2022/08/25 00:23:44;;;;;;;8.77;6.90;;;22.70;22.50;;;;;;5074160;28;20196;-69
2022/08/25 00:26:10;;;;;;;7.65;6.68;;;22.60;27.20;;;;;;5073621;28;20164;-70
2022/08/25 00:28:36;;;;;;;10.00;6.78;;;22.50;33.00;;;;;;5073766;28;20176;-70
2022/08/25 00:31:03;;;;;;;9.80;7.22;;;22.50;37.20;;;;;;5073848;28;20169;-70
2022/08/25 00:33:32;;;;;;;7.53;6.82;;;22.50;36.50;;;;;;5072627;28;20691;-70
2022/08/25 00:35:58;;;;;;;7.65;7.00;;;22.60;35.10;;;;;;5073671;28;20208;-70
2022/08/25 00:38:25;;;;;;;8.60;7.22;;;22.60;33.40;;;;;;5073517;28;20161;-70
2022/08/25 00:41:04;;;;;;;9.27;7.40;;;22.50;37.60;;;;;;5073305;28;20191;-70
2022/08/25 00:43:55;;;;;;;8.63;6.78;;;22.50;39.00;;;;;;5073674;28;20520;-70
2022/08/25 00:46:24;;;;;;;9.77;8.98;;;22.50;36.40;;;;;;5073766;28;20230;-71
2022/08/25 00:48:56;;;;;;;8.70;8.00;;;22.50;44.40;;;;;;5073447;28;20478;-69
2022/08/25 00:51:48;;;;;;;8.23;7.38;;;22.50;46.10;;;;;;5073650;28;20203;-70
2022/08/25 00:54:22;;;;;;;9.00;8.20;;;22.40;48.50;;;;;;5073498;28;20192;-70
2022/08/25 00:56:50;;;;;;;10.18;9.18;;;22.40;52.10;;;;;;5071774;28;20277;-70
2022/08/25 00:59:21;;;;;;;10.85;8.90;;;22.40;51.30;;;;;;5073556;28;20172;-70
2022/08/25 01:01:48;;;;;;;9.65;8.60;;;22.50;49.30;;;;;;5073414;28;20286;-70
2022/08/25 01:04:14;;;;;;;9.70;8.70;;;22.40;45.50;;;;;;5073474;28;20659;-69
2022/08/25 01:06:44;;;;;;;9.48;8.57;;;22.30;50.30;;;;;;5073349;28;20218;-70
2022/08/25 01:09:12;;;;;;;9.25;8.07;;;22.30;52.90;;;;;;5073009;28;20590;-70
2022/08/25 01:11:40;;;;;;;9.18;8.50;;;22.30;50.40;;;;;;5073485;28;20188;-70
2022/08/25 01:14:08;;;;;;;9.70;8.95;;;22.30;51.90;;;;;;5071955;28;20184;-70
2022/08/25 01:16:35;;;;;;;9.75;8.85;;;22.30;54.50;;;;;;5073185;28;20172;-69
2022/08/25 01:19:02;;;;;;;10.50;9.45;;;22.40;51.80;;;;;;5073113;28;20180;-69
2022/08/25 01:21:31;;;;;;;9.43;8.52;;;22.30;50.50;;;;;;5072928;28;20165;-70
2022/08/25 01:23:59;;;;;;;9.95;8.55;;;22.30;51.80;;;;;;5072407;28;20257;-71
2022/08/25 01:26:30;;;;;;;9.82;8.93;;;22.30;54.10;;;;;;5073161;28;20233;-69
2022/08/25 01:31:42;;;;;;;9.07;8.25;;;22.20;58.10;;;;;;5073340;28;20175;-70
2022/08/25 01:34:11;;;;;;;9.75;8.73;;;22.10;61.60;;;;;;5073062;28;20494;-70
2022/08/25 01:36:37;;;;;;;10.30;9.15;;;22.20;59.20;;;;;;5073180;28;20184;-69
2022/08/25 01:39:03;;;;;;;9.73;8.77;;;22.20;56.50;;;;;;5071453;28;20610;-69
2022/08/25 01:41:45;;;;;;;10.27;9.20;;;22.10;57.50;;;;;;5073110;28;20182;-71
2022/08/25 01:44:10;;;;;;;11.07;9.35;;;22.10;59.90;;;;;;5073083;28;20214;-71
2022/08/25 01:46:37;;;;;;;10.20;9.32;;;22.10;60.20;;;;;;5072820;28;20180;-69
2022/08/25 01:49:03;;;;;;;11.52;10.50;;;22.20;62.10;;;;;;5072650;28;20171;-70
2022/08/25 01:51:37;;;;;;;10.68;9.27;;;22.10;54.00;;;;;;5073035;28;20205;-70
2022/08/25 01:54:02;;;;;;;9.75;9.05;;;22.10;55.10;;;;;;5072711;28;20230;-69
2022/08/25 01:56:28;;;;;;;10.43;9.32;;;22.20;50.60;;;;;;5072898;28;20180;-70
2022/08/25 01:58:55;;;;;;;10.10;9.05;;;22.20;51.10;;;;;;5072725;28;20204;-70
2022/08/25 02:01:22;;;;;;;13.88;11.52;;;22.10;52.90;;;;;;5072929;28;20165;-69
2022/08/25 02:03:51;;;;;;;18.15;11.98;;;22.10;52.40;;;;;;5072770;28;20588;-70
2022/08/25 02:06:23;;;;;;;10.23;9.27;;;22.20;47.20;;;;;;5072854;28;20528;-70
2022/08/25 02:08:53;;;;;;;9.52;8.82;;;22.20;43.20;;;;;;5072228;28;20216;-70
2022/08/25 02:11:20;;;;;;;10.30;9.30;;;22.30;39.30;;;;;;5072796;28;20177;-70
2022/08/25 02:13:46;;;;;;;9.45;8.65;;;22.20;43.50;;;;;;5072729;28;20318;-70
2022/08/25 02:16:19;;;;;;;15.55;9.30;;;22.10;49.20;;;;;;5072502;28;20714;-69
2022/08/25 02:18:46;;;;;;;10.80;9.82;;;22.20;47.90;;;;;;5072573;28;20168;-69
2022/08/25 02:21:12;;;;;;;11.07;10.18;;;22.10;57.60;;;;;;5072491;28;20173;-69
2022/08/25 02:23:39;;;;;;;11.60;10.23;;;22.00;57.20;;;;;;5072305;28;20613;-69
2022/08/25 02:26:04;;;;;;;12.18;9.63;;;22.00;58.10;;;;;;5072730;28;20620;-69
2022/08/25 02:28:30;;;;;;;10.43;9.43;;;21.90;72.90;;;;;;5072483;28;20254;-69
2022/08/25 02:30:55;;;;;;;9.65;8.82;;;21.70;90.20;;;;;;5072532;28;20636;-70
2022/08/25 02:33:21;;;;;;;9.02;8.15;;;21.60;92.20;;;;;;5072553;28;20173;-69
2022/08/25 02:35:47;;;;;;;9.25;8.50;;;21.60;93.70;;;;;;5074687;28;20668;-69
2022/08/25 02:38:13;;;;;;;9.45;8.60;;;21.50;96.40;;;;;;5075814;28;20191;-69
2022/08/25 02:40:39;;;;;;;10.95;8.80;;;21.50;97.10;;;;;;5075748;28;20241;-69
2022/08/25 02:43:04;;;;;;;9.13;8.32;;;21.50;99.10;;;;;;5075977;28;20620;-69
2022/08/25 02:45:30;;;;;;;10.77;8.00;;;21.50;98.50;;;;;;5075974;28;20169;-70
2022/08/25 02:47:56;;;;;;;9.02;8.32;;;21.50;99.90;;;;;;5075808;28;20223;-70
2022/08/25 02:50:22;;;;;;;11.45;8.27;;;21.50;99.90;;;;;;5074447;28;20620;-69
2022/08/25 02:52:49;;;;;;;10.52;8.30;;;21.50;99.90;;;;;;5075216;28;20565;-69
2022/08/25 02:55:16;;;;;;;10.18;8.80;;;21.40;99.90;;;;;;5075777;28;20230;-69
2022/08/25 02:57:42;;;;;;;9.32;8.43;;;21.40;99.90;;;;;;5075855;28;20560;-69
2022/08/25 03:00:10;;;;;;;9.25;8.05;;;21.40;99.90;;;;;;5075714;28;20168;-69
2022/08/25 03:02:36;;;;;;;9.55;8.68;;;21.30;99.90;;;;;;5075564;28;20260;-70
2022/08/25 03:05:03;;;;;;;12.43;8.95;;;21.30;99.90;;;;;;5075622;28;20613;-69
2022/08/25 03:07:29;;;;;;;10.38;9.18;;;21.30;99.90;;;;;;5075200;28;20169;-70
2022/08/25 03:09:55;;;;;;;11.23;9.77;;;21.20;99.90;;;;;;5075398;28;20292;-69
2022/08/25 03:12:21;;;;;;;11.85;9.18;;;21.20;99.90;;;;;;5075485;28;20207;-69
2022/08/25 03:14:47;;;;;;;13.05;9.27;;;21.10;99.90;;;;;;5075325;28;20211;-69
2022/08/25 03:17:13;;;;;;;12.07;8.98;;;21.10;99.90;;;;;;5075283;28;20169;-70
2022/08/25 03:19:38;;;;;;;16.30;10.70;;;21.00;99.90;;;;;;5075024;28;20235;-69
2022/08/25 03:22:04;;;;;;;19.63;10.38;;;21.00;99.90;;;;;;5074545;28;20161;-69
2022/08/25 03:24:30;;;;;;;12.52;10.18;;;20.90;99.90;;;;;;5074020;28;20169;-69
2022/08/25 03:26:55;;;;;;;14.95;10.57;;;20.90;99.90;;;;;;5075300;28;20194;-69
2022/08/25 03:29:23;;;;;;;14.38;9.93;;;20.90;99.90;;;;;;5075253;28;20697;-69
2022/08/25 03:31:50;;;;;;;20.63;10.13;;;20.90;99.90;;;;;;5074885;28;20536;-71
2022/08/25 03:34:18;;;;;;;12.73;10.13;;;21.00;99.90;;;;;;5074490;28;20176;-70
2022/08/25 03:36:45;;;;;;;14.75;9.75;;;21.10;99.90;;;;;;5073767;28;20695;-70
2022/08/25 03:39:11;;;;;;;16.38;9.93;;;21.10;99.90;;;;;;5074997;28;20184;-70
2022/08/25 03:41:37;;;;;;;12.73;9.98;;;21.20;99.90;;;;;;5073195;28;20179;-70
2022/08/25 03:44:04;;;;;;;14.70;10.15;;;21.10;99.90;;;;;;5075015;28;20207;-70
2022/08/25 03:46:38;;;;;;;16.67;9.73;;;21.10;99.90;;;;;;5073946;28;20200;-70
2022/08/25 03:49:06;;;;;;;10.40;9.35;;;21.10;99.90;;;;;;5073098;28;20203;-70
2022/08/25 03:51:36;;;;;;;11.30;9.98;;;21.00;99.90;;;;;;5074354;28;20184;-70
2022/08/25 03:54:03;;;;;;;16.35;10.20;;;21.00;99.90;;;;;;5074251;28;20315;-70
2022/08/25 03:56:29;;;;;;;11.30;9.63;;;20.90;99.90;;;;;;5074515;28;20172;-70
2022/08/25 03:58:55;;;;;;;15.80;9.32;;;21.00;99.90;;;;;;5074084;28;20627;-70
2022/08/25 04:01:22;;;;;;;13.68;9.98;;;21.00;99.90;;;;;;5074338;28;20180;-70
2022/08/25 04:03:48;;;;;;;15.60;9.85;;;21.10;99.90;;;;;;5073741;28;20169;-69
2022/08/25 04:06:15;;;;;;;17.38;9.75;;;21.10;99.90;;;;;;5074218;28;20589;-69
2022/08/25 04:08:41;;;;;;;14.57;9.93;;;21.10;99.90;;;;;;5073543;28;20217;-70
2022/08/25 04:11:18;;;;;;;13.13;9.23;;;21.00;99.90;;;;;;5073760;28;20169;-69
2022/08/25 04:13:45;;;;;;;17.13;9.95;;;21.10;99.90;;;;;;5074311;28;20657;-69
2022/08/25 04:16:17;;;;;;;16.88;9.50;;;21.00;99.90;;;;;;5073518;28;20216;-70
2022/08/25 04:18:44;;;;;;;15.75;9.93;;;21.10;99.90;;;;;;5073251;28;20183;-69
2022/08/25 04:21:11;;;;;;;21.35;9.60;;;21.00;99.90;;;;;;5073746;28;20537;-70
2022/08/25 04:23:39;;;;;;;16.20;9.52;;;21.00;99.90;;;;;;5073537;28;20621;-70
2022/08/25 04:26:14;;;;;;;16.00;9.32;;;20.90;99.90;;;;;;5074032;28;20168;-70
2022/08/25 04:28:40;;;;;;;17.88;10.18;;;20.80;99.90;;;;;;5073695;28;20182;-69
2022/08/25 04:31:08;;;;;;;14.18;9.57;;;20.80;99.90;;;;;;5073641;28;20174;-70
2022/08/25 04:33:34;;;;;;;19.20;9.23;;;20.70;99.90;;;;;;5072990;28;20230;-69
2022/08/25 04:36:00;;;;;;;15.35;10.20;;;20.80;99.90;;;;;;5073668;28;20311;-69
2022/08/25 04:38:26;;;;;;;19.65;9.48;;;20.80;99.90;;;;;;5071682;28;20687;-69
2022/08/25 04:40:59;;;;;;;19.05;9.50;;;20.80;99.90;;;;;;5073366;28;20219;-70
2022/08/25 04:43:24;;;;;;;19.40;9.70;;;20.90;99.90;;;;;;5073650;28;20172;-69
2022/08/25 04:45:51;;;;;;;18.33;10.10;;;21.00;99.90;;;;;;5073204;28;20173;-69
2022/08/25 04:48:16;;;;;;;25.35;10.55;;;21.00;99.90;;;;;;5072865;28;20165;-70
2022/08/25 04:50:43;;;;;;;18.60;9.75;;;21.00;99.90;;;;;;5073473;28;20566;-69
2022/08/25 04:53:09;;;;;;;19.83;9.88;;;21.10;99.40;;;;;;5072619;28;20160;-70
2022/08/25 04:55:42;;;;;;;23.10;9.65;;;21.10;97.00;;;;;;5072749;28;20207;-71
2022/08/25 04:58:08;;;;;;;23.20;10.18;;;21.20;95.90;;;;;;5072148;28;20177;-70
2022/08/25 05:00:35;;;;;;;19.98;10.43;;;21.20;97.20;;;;;;5072964;28;20176;-70
2022/08/25 05:03:01;;;;;;;25.50;11.35;;;21.30;97.80;;;;;;5072810;28;20169;-70
2022/08/25 05:05:27;;;;;;;28.73;9.95;;;21.50;96.60;;;;;;5073440;28;20165;-70
2022/08/25 05:07:53;;;;;;;19.65;9.48;;;21.80;93.00;;;;;;5072638;28;20168;-70
2022/08/25 05:10:19;;;;;;;27.80;10.05;;;22.00;79.20;;;;;;5072375;28;20180;-70
2022/08/25 05:12:44;;;;;;;24.42;9.55;;;22.40;64.40;;;;;;5072852;28;20524;-70
2022/08/25 05:17:56;;;;;;;39.90;9.93;;;23.40;1.70;;;;;;5072656;28;20171;-70
2022/08/25 05:20:22;;;;;;;37.13;9.57;;;24.20;1.00;;;;;;5072800;28;20269;-71
2022/08/25 05:22:47;;;;;;;38.58;10.07;;;25.00;1.00;;;;;;5072552;28;20195;-70
2022/08/25 05:25:13;;;;;;;41.20;9.65;;;25.70;1.00;;;;;;5072692;28;20620;-70
2022/08/25 05:27:40;;;;;;;33.13;9.40;;;25.70;99.90;;;;;;5071587;28;20169;-71
2022/08/25 05:30:06;;;;;;;20.83;6.43;;;26.20;99.90;;;;;;5072838;28;20172;-71
2022/08/25 05:32:32;;;;;;;32.33;8.45;;;27.20;99.90;;;;;;5070129;28;20546;-71
2022/08/25 05:34:58;;;;;;;37.22;9.52;;;27.90;1.00;;;;;;5072555;28;20208;-72
2022/08/25 05:37:23;;;;;;;29.25;9.07;;;28.90;99.90;;;;;;5072791;28;20199;-72
2022/08/25 05:39:49;;;;;;;31.20;11.93;;;29.60;1.00;;;;;;5071808;28;20173;-72
2022/08/25 05:42:15;;;;;;;35.60;8.93;;;30.20;99.90;;;;;;5072365;28;20540;-73
2022/08/25 05:44:41;;;;;;;33.38;9.18;;;31.20;1.00;;;;;;5072454;28;20165;-74
2022/08/25 05:47:06;;;;;;;28.30;8.55;;;32.00;1.00;;;;;;5071521;28;20643;-74
2022/08/25 05:49:32;;;;;;;34.97;9.10;;;32.70;1.00;;;;;;5072700;28;20636;-73
2022/08/25 05:51:58;;;;;;;36.40;10.00;;;33.10;99.90;;;;;;5070468;28;20172;-74
2022/08/25 05:54:24;;;;;;;29.92;9.00;;;32.50;99.90;;;;;;5072233;28;20235;-74
2022/08/25 05:56:50;;;;;;;29.13;8.75;;;33.00;99.90;;;;;;5072675;28;20173;-74
2022/08/25 05:59:16;;;;;;;35.90;9.15;;;33.30;99.90;;;;;;5071676;28;20168;-74
2022/08/25 06:04:26;;;;;;;36.15;8.93;;;32.60;99.90;;;;;;5072432;28;20576;-73
2022/08/25 06:06:53;;;;;;;34.88;8.77;;;32.50;99.90;;;;;;5072063;28;20165;-73
2022/08/25 06:09:20;;;;;;;31.40;9.10;;;32.70;99.90;;;;;;5071839;28;20265;-74
2022/08/25 06:11:46;;;;;;;31.35;8.38;;;33.00;99.90;;;;;;5075704;28;20168;-74
2022/08/25 06:14:12;;;;;;;32.03;7.85;;;33.20;99.90;;;;;;5076060;28;20172;-74
2022/08/25 06:16:39;;;;;;;30.35;8.35;;;32.50;99.90;;;;;;5073781;28;20210;-74
2022/08/25 06:19:06;;;;;;;27.05;7.60;;;32.10;99.90;;;;;;5074086;28;20189;-74
2022/08/25 06:21:31;;;;;;;28.08;8.18;;;32.40;99.90;;;;;;5075643;28;20207;-74
2022/08/25 06:23:57;;;;;;;28.60;7.80;;;33.00;99.90;;;;;;5075755;28;20328;-75
2022/08/25 06:26:23;;;;;;;23.50;7.38;;;33.60;99.90;;;;;;5074870;28;20179;-75
2022/08/25 06:28:50;;;;;;;26.95;7.25;;;33.40;99.90;;;;;;5075377;28;20532;-74
2022/08/25 06:31:17;;;;;;;25.75;7.72;;;33.70;99.90;;;;;;5075130;28;20173;-74
2022/08/25 06:33:43;;;;;;;24.80;7.72;;;34.10;99.90;;;;;;5075217;28;20199;-75
2022/08/25 06:36:09;;;;;;;24.33;8.00;;;34.00;99.90;;;;;;5075296;28;20212;-75
2022/08/25 06:38:35;;;;;;;27.65;8.43;;;33.50;99.90;;;;;;5076041;28;20620;-74
2022/08/25 06:41:06;;;;;;;35.58;8.25;;;32.70;99.90;;;;;;5074816;28;20256;-74
2022/08/25 06:43:32;;;;;;;29.15;9.30;;;32.20;99.90;;;;;;5075265;28;20620;-74
2022/08/25 06:46:10;;;;;;;26.95;8.43;;;32.30;99.90;;;;;;5074875;28;20200;-73
2022/08/25 06:48:37;;;;;;;31.35;8.93;;;32.30;99.90;;;;;;5075232;28;20623;-74
2022/08/25 06:51:08;;;;;;;30.80;8.93;;;32.50;99.90;;;;;;5074855;28;20169;-73
2022/08/25 06:53:34;;;;;;;25.42;8.98;;;32.90;99.90;;;;;;5075138;28;20165;-74
2022/08/25 06:56:00;;;;;;;23.05;10.30;;;33.10;99.90;;;;;;5074819;28;20211;-73
2022/08/25 06:58:25;;;;;;;34.22;9.57;;;32.80;99.90;;;;;;5074626;28;20169;-74
2022/08/25 07:00:51;;;;;;;26.98;8.27;;;32.80;99.90;;;;;;5073274;28;20172;-73
2022/08/25 07:03:17;;;;;;;26.17;8.00;;;32.80;99.90;;;;;;5075099;28;20165;-74
2022/08/25 07:05:51;;;;;;;21.05;7.57;;;32.50;99.90;;;;;;5074822;28;20179;-75
2022/08/25 07:08:17;;;;;;;34.72;8.38;;;32.90;99.90;;;;;;5074443;28;20211;-74
2022/08/25 07:10:42;;;;;;;25.58;7.28;;;33.40;99.90;;;;;;5074893;28;20528;-75
2022/08/25 07:13:08;;;;;;;17.88;6.15;;;34.00;99.90;;;;;;5074478;28;20177;-75
2022/08/25 07:15:38;;;;;;;21.45;6.50;;;34.10;99.90;;;;;;5074562;28;20223;-75
2022/08/25 07:18:03;;;;;;;22.17;7.43;;;34.60;99.90;;;;;;5077597;28;20207;-76
2022/08/25 07:20:30;;;;;;;15.23;6.47;;;34.90;99.90;;;;;;5089413;28;20215;-78
2022/08/25 07:22:56;;;;;;;18.75;6.82;;;35.50;99.90;;;;;;5105017;28;20183;-77
2022/08/25 07:25:22;;;;;;;9.05;4.38;;;36.40;90.50;;;;;;5099014;28;20277;-76
2022/08/25 07:27:48;;;;;;;15.02;6.22;;;36.70;57.20;;;;;;5099705;28;20227;-78
2022/08/25 07:30:16;;;;;;;13.10;6.10;;;37.00;47.40;;;;;;5110830;28;20207;-77
2022/08/25 07:32:41;;;;;;;6.40;3.40;;;37.10;42.80;;;;;;5099192;28;20171;-77
2022/08/25 07:35:14;;;;;;;8.75;4.38;;;36.80;26.70;;;;;;5105946;28;20647;-75
2022/08/25 07:37:41;;;;;;;18.67;6.40;;;37.30;25.60;;;;;;5107714;28;20198;-76
2022/08/25 07:40:09;;;;;;;19.52;6.90;;;38.30;25.70;;;;;;5097787;27;20175;-77
2022/08/25 07:42:35;;;;;;;15.00;6.45;;;39.00;19.80;;;;;;5109286;28;20169;-76
2022/08/25 07:45:01;;;;;;;19.17;6.38;;;39.90;9.00;;;;;;5102584;28;20660;-76
2022/08/25 07:47:26;;;;;;;23.75;5.82;;;40.90;1.00;;;;;;5102394;27;20167;-76
2022/08/25 07:49:52;;;;;;;17.27;5.95;;;41.60;1.00;;;;;;5109224;28;20174;-75
2022/08/25 07:52:18;;;;;;;19.25;6.18;;;41.80;1.00;;;;;;5097386;28;20704;-75
2022/08/25 07:54:44;;;;;;;14.90;5.50;;;42.10;1.00;;;;;;5107983;28;20202;-76
2022/08/25 07:57:09;;;;;;;10.02;5.25;;;42.20;1.00;;;;;;5102866;28;20170;-76
2022/08/25 07:59:42;;;;;;;13.80;5.28;;;42.80;1.00;;;;;;5100993;28;20638;-76
2022/08/25 08:02:11;;;;;;;14.95;5.22;;;43.30;1.00;;;;;;5110118;28;20216;-74
2022/08/25 08:04:36;;;;;;;12.45;4.70;;;43.90;1.00;;;;;;5097583;28;20175;-75
2022/08/25 08:07:02;;;;;;;11.82;5.95;;;44.00;1.00;;;;;;5105642;28;20171;-74
2022/08/25 08:09:30;;;;;;;11.93;4.65;;;43.30;1.00;;;;;;5105154;28;20527;-77
2022/08/25 08:11:56;;;;;;;10.45;3.50;;;41.70;1.00;;;;;;5097290;28;20266;-75
2022/08/25 08:14:22;;;;;;;9.05;3.58;;;40.90;1.00;;;;;;5109788;28;20167;-75
2022/08/25 08:16:48;;;;;;;6.38;3.22;;;41.10;1.00;;;;;;5099712;28;20625;-74
2022/08/25 08:19:14;;;;;;;4.65;2.63;;;40.70;1.00;;;;;;5103158;28;20192;-74
2022/08/25 08:21:40;;;;;;;3.90;2.17;;;40.90;1.00;;;;;;5107001;28;20174;-76
2022/08/25 08:24:06;;;;;;;8.20;3.03;;;40.30;1.00;;;;;;5096646;28;20199;-75
2022/08/25 08:26:32;;;;;;;5.85;2.83;;;39.80;1.00;;;;;;5109172;28;20218;-76
2022/08/25 08:28:58;;;;;;;7.10;2.95;;;39.80;1.00;;;;;;5101091;28;20668;-76
2022/08/25 08:31:27;;;;;;;6.07;2.72;;;40.90;1.00;;;;;;5101726;28;20164;-75
2022/08/25 08:33:54;;;;;;;15.30;3.15;;;41.50;1.00;;;;;;5108727;28;20178;-78
2022/08/25 08:36:20;;;;;;;2.70;2.50;;;41.20;1.00;;;;;;5096156;28;20293;-75
2022/08/25 08:38:46;;;;;;;5.05;2.35;;;41.20;1.00;;;;;;5106974;28;20203;-75
2022/08/25 08:44:08;;;;;;;6.13;3.40;;;41.00;1.00;;;;;;5096994;28;20526;-76
2022/08/25 08:46:46;;;;;;;3.05;2.83;;;41.20;1.00;;;;;;5108211;28;20168;-77
2022/08/25 08:49:37;;;;;;;4.75;3.03;;;41.70;1.00;;;;;;5102338;28;20173;-75
2022/08/25 08:52:04;;;;;;;3.63;2.50;;;41.50;1.00;;;;;;5096336;28;20244;-75
2022/08/25 08:54:34;;;;;;;6.53;2.58;;;40.40;1.00;;;;;;5105390;28;20281;-76
2022/08/25 08:57:15;;;;;;;4.80;2.42;;;40.30;1.00;;;;;;5092861;28;20182;-76
2022/08/25 08:59:53;;;;;;;3.20;2.13;;;40.80;1.00;;;;;;5087741;28;20259;-75
2022/08/25 09:02:45;;;;;;;4.05;2.42;;;39.70;1.00;;;;;;5107826;28;20171;-75
2022/08/25 09:05:13;;;;;;;4.65;2.42;;;41.20;1.00;;;;;;5101985;28;20201;-75
2022/08/25 09:08:09;;;;;;;3.08;2.13;;;41.00;1.00;;;;;;5099236;28;20658;-75
2022/08/25 09:11:07;;;;;;;2.53;2.30;;;41.30;1.00;;;;;;5076567;28;20192;-76
2022/08/25 09:13:44;;;;;;;4.93;2.55;;;40.00;1.00;;;;;;5111159;28;20182;-75
2022/08/25 09:19:20;;;;;;;8.77;2.50;;;39.10;1.00;;;;;;5103748;28;20193;-74
2022/08/25 09:21:51;;;;;;;2.95;2.70;;;40.50;1.00;;;;;;5106994;28;20167;-75
2022/08/25 09:24:20;;;;;;;6.57;2.88;;;41.10;1.00;;;;;;5094810;28;20171;-75
2022/08/25 09:27:07;;;;;;;5.30;2.80;;;41.00;1.00;;;;;;5106293;28;20167;-75
2022/08/25 09:30:04;;;;;;;4.22;2.00;;;40.10;1.00;;;;;;5103874;28;20178;-76
2022/08/25 09:32:34;;;;;;;4.10;2.50;;;40.10;1.00;;;;;;5079748;28;20242;-75
2022/08/25 09:35:02;;;;;;;4.03;2.50;;;40.90;1.00;;;;;;5104014;28;20202;-76
2022/08/25 09:37:28;;;;;;;2.97;2.15;;;41.40;1.00;;;;;;5103702;28;20179;-76
2022/08/25 09:39:54;;;;;;;3.15;2.35;;;41.60;1.00;;;;;;5096584;28;20181;-76
2022/08/25 09:42:20;;;;;;;2.63;2.42;;;41.30;1.00;;;;;;5109385;28;20519;-76
2022/08/25 09:44:47;;;;;;;2.40;2.20;;;41.30;1.00;;;;;;5098617;28;20629;-76
2022/08/25 09:47:23;;;;;;;3.72;2.00;;;41.00;1.00;;;;;;5105495;28;20179;-76
2022/08/25 09:49:59;;;;;;;4.70;1.90;;;41.40;1.00;;;;;;5110308;28;20166;-76
2022/08/25 09:52:27;;;;;;;5.70;2.63;;;40.50;1.00;;;;;;5098658;28;20212;-76
2022/08/25 09:55:06;;;;;;;2.90;2.10;;;40.00;1.00;;;;;;5108939;28;20199;-76
2022/08/25 09:57:43;;;;;;;4.05;2.30;;;39.60;1.00;;;;;;5107632;28;20162;-76
2022/08/25 10:00:17;;;;;;;2.28;2.00;;;39.20;1.00;;;;;;5099258;28;20258;-75
2022/08/25 10:02:58;;;;;;;5.43;2.60;;;39.20;1.00;;;;;;5110308;28;20183;-77
2022/08/25 10:05:25;;;;;;;2.45;2.25;;;39.30;1.00;;;;;;5107254;28;20175;-75
2022/08/25 10:07:55;;;;;;;2.50;1.98;;;39.20;1.00;;;;;;5100879;28;20654;-76
2022/08/25 10:10:29;;;;;;;5.07;2.50;;;39.50;1.00;;;;;;5112193;28;20187;-76
2022/08/25 10:12:58;;;;;;;3.90;2.40;;;39.70;1.00;;;;;;5102898;28;20630;-75
2022/08/25 10:15:26;;;;;;;4.07;2.20;;;39.90;1.00;;;;;;5104389;28;20341;-76
2022/08/25 10:17:53;;;;;;;2.47;2.28;;;39.70;1.00;;;;;;5110626;28;20167;-75
2022/08/25 10:20:21;;;;;;;5.95;2.20;;;39.60;1.00;;;;;;5098395;27;20284;-76
2022/08/25 10:22:48;;;;;;;5.18;2.05;;;39.10;1.00;;;;;;5116367;28;20171;-76
2022/08/25 10:25:17;;;;;;;5.22;2.40;;;39.90;1.00;;;;;;5116152;28;20182;-76
2022/08/25 10:28:00;;;;;;;3.20;2.15;;;40.80;1.00;;;;;;5116673;28;20175;-76
2022/08/25 10:30:38;;;;;;;2.58;2.30;;;40.90;1.00;;;;;;5116743;28;20637;-76
2022/08/25 10:33:18;;;;;;;2.42;2.22;;;40.80;1.00;;;;;;5115360;28;20633;-76
2022/08/25 10:35:53;;;;;;;2.60;2.40;;;40.20;1.00;;;;;;5114725;28;20202;-76
2022/08/25 10:38:57;;;;;;;3.05;2.28;;;39.90;1.00;;;;;;5116206;28;20185;-75
2022/08/25 10:41:45;;;;;;;3.85;2.30;;;39.70;1.00;;;;;;5116311;28;20162;-74
2022/08/25 10:47:30;;;;;;;5.10;2.75;;;41.10;1.00;;;;;;5116095;28;20538;-74
2022/08/25 10:50:04;;;;;;;3.85;3.55;;;41.70;1.00;;;;;;5115684;28;20174;-75
2022/08/25 10:53:06;;;;;;;4.35;2.38;;;42.30;1.00;;;;;;5114948;28;20159;-75
2022/08/25 10:56:13;;;;;;;3.67;1.90;;;42.20;1.00;;;;;;5114385;28;20561;-75
2022/08/25 10:59:06;;;;;;;4.00;2.25;;;40.40;1.00;;;;;;5094205;28;20227;-76
2022/08/25 11:02:19;;;;;;;5.75;5.10;;;39.20;1.00;;;;;;5115973;28;20171;-76
2022/08/25 11:04:58;;;;;;;2.10;2.00;;;39.70;1.00;;;;;;5097344;28;20585;-76
2022/08/25 11:07:29;;;;;;;2.42;2.22;;;39.00;1.00;;;;;;5115633;28;20163;-75
2022/08/25 11:10:01;;;;;;;3.92;1.85;;;38.70;1.00;;;;;;5114046;28;20229;-75
2022/08/25 11:12:37;;;;;;;2.03;1.92;;;39.30;1.00;;;;;;5116137;28;20602;-75
2022/08/25 11:15:19;;;;;;;3.95;2.63;;;40.10;1.00;;;;;;5115615;28;20210;-75
2022/08/25 11:17:56;;;;;;;2.10;1.90;;;41.20;1.00;;;;;;5115191;28;20580;-76
2022/08/25 11:20:52;;;;;;;2.60;2.40;;;39.70;1.00;;;;;;5114964;28;20255;-74
2022/08/25 11:23:36;;;;;;;2.80;2.15;;;38.70;1.00;;;;;;5114343;28;20256;-75
2022/08/25 11:26:10;;;;;;;1.98;1.88;;;37.70;1.00;;;;;;5115515;28;20167;-74
2022/08/25 11:28:53;;;;;;;5.28;2.38;;;37.10;1.00;;;;;;5115154;28;20201;-74
2022/08/25 11:31:21;;;;;;;3.30;2.17;;;37.10;1.00;;;;;;5114844;28;20170;-75
2022/08/25 11:33:49;;;;;;;3.20;2.40;;;37.00;1.00;;;;;;5114798;27;20224;-75
2022/08/25 11:36:34;;;;;;;5.75;2.47;;;37.50;1.00;;;;;;5115204;28;20214;-75
2022/08/25 11:39:27;;;;;;;7.90;2.88;;;38.30;1.00;;;;;;5082449;28;20182;-74
2022/08/25 11:42:23;;;;;;;3.22;2.90;;;38.80;1.00;;;;;;5105687;28;20181;-73
2022/08/25 11:45:26;;;;;;;2.88;2.30;;;37.70;1.00;;;;;;5087996;28;20159;-75
2022/08/25 11:48:11;;;;;;;2.35;2.15;;;37.10;1.00;;;;;;5101364;28;20167;-74
2022/08/25 11:51:05;;;;;;;2.40;2.20;;;36.80;1.00;;;;;;5110911;28;20216;-75
2022/08/25 11:53:42;;;;;;;2.50;2.40;;;36.60;1.00;;;;;;5103129;28;20693;-74
2022/08/25 11:56:33;;;;;;;2.20;2.00;;;36.30;1.00;;;;;;5099331;28;20624;-76
2022/08/25 11:58:58;;;;;;;2.42;2.22;;;36.20;1.00;;;;;;5082741;28;20170;-74
2022/08/25 12:01:39;;;;;;;3.63;2.50;;;35.70;1.00;;;;;;5103775;28;20232;-75
2022/08/25 12:04:27;;;;;;;2.47;2.28;;;35.50;1.00;;;;;;5094785;28;20197;-75
2022/08/25 12:07:04;;;;;;;3.03;2.10;;;35.40;1.00;;;;;;5081655;28;20162;-75
2022/08/25 12:09:30;;;;;;;4.53;3.17;;;35.10;1.00;;;;;;5104505;28;20297;-75
2022/08/25 12:11:57;;;;;;;3.53;2.33;;;34.60;1.00;;;;;;5104685;28;20179;-77
2022/08/25 12:14:25;;;;;;;2.63;2.33;;;34.50;1.00;;;;;;5096965;28;20174;-76
2022/08/25 12:16:52;;;;;;;2.40;2.20;;;34.40;1.00;;;;;;5080609;28;20203;-76
2022/08/25 12:19:35;;;;;;;2.63;2.42;;;34.60;1.00;;;;;;5105725;28;20184;-76
2022/08/25 12:22:01;;;;;;;3.13;2.03;;;34.80;1.00;;;;;;5107329;28;20175;-76
2022/08/25 12:24:42;;;;;;;3.10;2.30;;;34.80;1.00;;;;;;5095883;28;20191;-76
2022/08/25 12:27:23;;;;;;;3.13;2.50;;;34.80;1.00;;;;;;5106305;28;20199;-76
2022/08/25 12:30:09;;;;;;;3.70;2.42;;;35.10;1.00;;;;;;5105217;28;20258;-77
2022/08/25 12:33:12;;;;;;;4.22;2.78;;;34.80;1.00;;;;;;5095942;28;20233;-76
2022/08/25 12:35:50;;;;;;;5.88;2.70;;;35.00;1.00;;;;;;5102686;28;20243;-76
2022/08/25 12:38:25;;;;;;;3.55;2.40;;;35.40;1.00;;;;;;5108598;28;20170;-75
2022/08/25 12:41:09;;;;;;;3.90;2.05;;;35.70;1.00;;;;;;5079854;28;20171;-75
2022/08/25 12:43:38;;;;;;;3.05;2.08;;;35.10;1.00;;;;;;5101752;28;20175;-74
2022/08/25 12:46:24;;;;;;;2.85;2.30;;;34.80;1.00;;;;;;5106607;28;20171;-75
2022/08/25 12:48:59;;;;;;;7.47;3.03;;;35.20;1.00;;;;;;5079423;28;20573;-76
2022/08/25 12:51:52;;;;;;;5.88;2.20;;;35.40;1.00;;;;;;5104953;28;20175;-76
2022/08/25 12:54:41;;;;;;;2.38;2.20;;;35.60;1.00;;;;;;5102621;28;20527;-74
2022/08/25 12:57:20;;;;;;;2.90;2.50;;;35.80;1.00;;;;;;5078288;28;20194;-74
2022/08/25 12:59:51;;;;;;;2.50;2.30;;;35.90;1.00;;;;;;5100221;28;20171;-74
2022/08/25 13:02:38;;;;;;;4.25;2.38;;;36.10;1.00;;;;;;5108551;28;20193;-75
2022/08/25 13:05:25;;;;;;;2.85;2.30;;;36.50;1.00;;;;;;5083261;28;20167;-75
2022/08/25 13:08:18;;;;;;;6.93;2.38;;;36.40;1.00;;;;;;5100912;28;20556;-75
2022/08/25 13:10:51;;;;;;;3.03;2.22;;;36.60;1.00;;;;;;5109325;28;20191;-74
2022/08/25 13:13:38;;;;;;;4.93;2.25;;;36.40;1.00;;;;;;5099627;28;20688;-74
2022/08/25 13:16:08;;;;;;;3.47;2.03;;;35.70;1.00;;;;;;5098270;28;20290;-75
2022/08/25 13:18:35;;;;;;;2.65;2.28;;;35.30;1.00;;;;;;5108712;28;20173;-75
2022/08/25 13:21:18;;;;;;;4.22;2.63;;;35.00;1.00;;;;;;5096937;28;20192;-75
2022/08/25 13:23:50;;;;;;;2.45;2.13;;;35.20;1.00;;;;;;5096674;28;20176;-74